Aviation Digital Data Service (ADDS)

Output produced by METARs form (1204 UTC 24 February 2018)
found at http://www.aviationweather.gov/adds/metars/
 
FABL 241144Z 32012KT 290V360 9999 BKN020 FEW035TCU 26/17 Q1012 TEMPO TS
TAF FABL 241000Z 2412/2512 33010KT 9999 BKN025 
     TEMPO 2414/2418 5000 TSRA SCT045CB 
     FM241900 21008KT CAVOK 
     PROB30 
     TEMPO 2503/2506 BKN003 TX26/2413Z TN14/2503Z
       
FACV 241043Z 26016KT 9999 FEW025 19/02 Q1013
FACT 241100Z 23025KT 9999 FEW035 BKN050 17/10 Q1015 NOSIG
TAF FACT 241000Z 2412/2518 24012KT 9999 BKN040 
     PROB30 
     TEMPO 2413/2418 22022KT 4000 -SHRA 
     FM241800 18014KT 9999 FEW035 
     BECMG 2510/2512 17024KT TX24/2512Z TN12/2504Z
       
FAEL 241100Z 23014KT CAVOK 22/16 Q1008
TAF FAEL 240600Z 2407/2418 23015KT CAVOK 
     BECMG 2410/2412 BKN020 
     TEMPO 2413/2418 5000 SHRA SCT010 BKN015 
     BECMG 2413/2415 16017KT TX23/2409Z TN19/2418Z
       
FAGG 241156Z 22015KT 9999 BKN033 BKN043 19/14 Q1011
TAF FAGG 241000Z 2412/2512 22010KT 9999 BKN040 
     TEMPO 2413/2424 4000 -SHRA BKN014 
     TEMPO 2414/2416 19020G30KT 
     BECMG 2422/2424 29010KT 
     FM250600 32005KT 9999 SCT030 
     BECMG 2510/2512 15010KT TX20/2412Z TN11/2504Z
       
FAHS 241100Z AUTO 32003KT //// // ////// 34/18 Q1009
TAF FAHS 240900Z 2410/2418 01007KT 9999 SCT035 
     PROB30 
     TEMPO 2416/2418 -TSRA FEW035CB TX31/2413Z TN24/2418Z
       
FAKM 241100Z 32013KT 9999 TS SCT050TCU FEW060CB 31/15 Q1011
TAF FAKM 240900Z 2410/2418 34013KT 9999 SCT045TCU 
     PROB30 
     TEMPO 2410/2413 5000 TSRA BKN040CB 
     FM241400 25015KT CAVOK TX28/2412Z TN21/2418Z
       
FALW 241100Z AUTO 23012KT //// // ////// 21/03 Q1014
FALA 241100Z 31012KT 260V330 9999 BKN020 25/15 Q1016 NOSIG
TAF FALA 241000Z 2412/2512 32008KT 9999 BKN035 
     BECMG 2413/2415 SCT035 
     PROB30 
     TEMPO 2500/2506 5000 BR BKN010 
     BECMG 2503/2505 22008KT 
     BECMG 2507/2509 BKN015 
     PROB30 
     TEMPO 2510/2512 FEW035TCU TX25/2412Z TN17/2504Z
       
FAMM 241100Z 29004KT 9999 FEW030TCU SCT030 26/17 Q1015 NOSIG
TAF FAMM 240900Z 2410/2418 32010KT 9999 BKN025 
     BECMG 2412/2414 VRB03KT 
     BECMG 2416/2418 03007KT TX27/2414Z TN23/2418Z
       
FAOB 241100Z AUTO 31013KT //// // ////// 18/12 Q1013
TAF FAPM 240900Z 2410/2418 14005KT CAVOK 
     FM241100 16005KT 9999 SCT025 
     TEMPO 2414/2418 5000 TSRA BKN010 FEW035CB BKN040 
     BECMG 2414/2416 BKN020 TX29/2412Z TN21/2418Z
       
FAPN 241100Z AUTO 03004KT //// // ////// 25/18 Q1013
FAPE 241100Z 24024KT CAVOK 19/14 Q1008 NOSIG
TAF FAPE 241000Z 2412/2512 23017G27KT 9999 BKN025 BKN045 
     PROB40 
     TEMPO 2413/2414 5000 SHRA BKN012 
     BECMG 2415/2418 CAVOK 
     BECMG 2503/2505 25007KT 
     BECMG 2508/2510 17011KT TX23/2510Z TN14/2504Z
       
FAGM 240700Z 31006KT 8000 BKN017 18/15 Q1021
TAF FARB 240900Z 2410/2418 18010KT 9999 SCT025 
     BECMG 2416/2418 BKN020 
     PROB30 
     TEMPO 2416/2418 5000 TSRA BKN010 FEW035CB BKN040 TX30/2412Z TN24/2418Z
       
FASB 240851Z 22007KT 9999 BKN018 14/10 Q1016
FAUT 241129Z 15008KT 9000 -RA FEW008 BKN015 FEW035TCU 19/17 Q1009 RESH
TAF FAUT 240900Z 2410/2418 13007KT 9999 BKN015 
     TEMPO 2412/2418 5000 RA OVC010 
     PROB40 
     TEMPO 2415/2418 3000 SHRA OVC008 SCT035TCU TX23/2410Z TN17/2418Z
       
FAUP 241100Z 22008KT 9999 FEW035 27/06 Q1012 NOSIG
TAF FAUP 241000Z 2412/2512 22010KT CAVOK TX34/2413Z TN12/2504Z
       
FAVV 241100Z AUTO /////KT //// // ////// 24/15 Q1015
FAWK 241100Z AUTO 30007KT //// // ////// ///// Q1017
TAF FAWK 240900Z 2410/2418 29008KT 9999 BKN030 TX25/2413Z TN20/2418Z
       
FAWB 241100Z AUTO 33007KT //// // ////// 26/18 Q1014
TAF FAWB 240900Z 2410/2418 30007KT 9999 OVC014 
     BECMG 2411/2413 BKN025 TX27/2413Z TN22/2418Z